Time;durP1;ratioP1;P1;durP2;ratioP2;P2;SDS_P1;SDS_P2;PMS_P1;PMS_P2;Temp;Humidity;BMP_temperature;BMP_pressure;BME280_temperature;BME280_humidity;BME280_pressure;Samples;Min_cycle;Max_cycle;Signal;HPM_P1;HPM_P2
2022/05/23 00:01:09;;;;;;;9.63;4.78;;;;;;;;;;5154213;27;20026;-76
2022/05/23 00:03:36;;;;;;;8.07;4.47;;;;;;;;;;5154226;27;20029;-76
2022/05/23 00:06:03;;;;;;;7.93;4.47;;;;;;;;;;5137681;27;20106;-75
2022/05/23 00:08:30;;;;;;;8.32;4.68;;;;;;;;;;5129428;27;20900;-76
2022/05/23 00:10:56;;;;;;;5.88;4.22;;;;;;;;;;5109507;27;20451;-77
2022/05/23 00:13:23;;;;;;;10.65;4.45;;;;;;;;;;5127797;27;20118;-76
2022/05/23 00:15:50;;;;;;;13.68;5.03;;;;;;;;;;5127839;27;20088;-77
2022/05/23 00:18:17;;;;;;;11.82;5.10;;;;;;;;;;5130712;27;20030;-76
2022/05/23 00:20:44;;;;;;;9.57;4.93;;;;;;;;;;5141234;27;20060;-76
2022/05/23 00:23:11;;;;;;;17.58;5.30;;;;;;;;;;5153904;27;20481;-77
2022/05/23 00:25:39;;;;;;;10.88;5.82;;;;;;;;;;5154193;27;20027;-76
2022/05/23 00:28:05;;;;;;;9.93;5.65;;;;;;;;;;5153956;27;20101;-77
2022/05/23 00:30:32;;;;;;;9.88;4.45;;;;;;;;;;5150872;27;20389;-76
2022/05/23 00:35:49;;;;;;;11.30;5.38;;;;;;;;;;5148189;27;20099;-76
2022/05/23 00:38:16;;;;;;;8.25;5.38;;;;;;;;;;5141198;27;20106;-76
2022/05/23 00:40:52;;;;;;;10.55;5.32;;;;;;;;;;5130314;28;20036;-76
2022/05/23 00:43:21;;;;;;;8.90;4.47;;;;;;;;;;5133142;28;20085;-77
2022/05/23 00:45:49;;;;;;;10.38;5.13;;;;;;;;;;5133136;28;20055;-76
2022/05/23 00:48:17;;;;;;;10.35;5.25;;;;;;;;;;5133214;28;20094;-76
2022/05/23 00:50:46;;;;;;;15.02;5.97;;;;;;;;;;5132867;28;20546;-76
2022/05/23 00:53:14;;;;;;;22.50;6.93;;;;;;;;;;5129352;28;20039;-77
2022/05/23 00:55:44;;;;;;;14.73;6.78;;;;;;;;;;5131519;27;20031;-77
2022/05/23 00:58:32;;;;;;;14.35;7.38;;;;;;;;;;5147930;27;20015;-76
2022/05/23 01:01:01;;;;;;;12.27;6.80;;;;;;;;;;5148225;27;20019;-76
2022/05/23 01:03:28;;;;;;;13.88;7.38;;;;;;;;;;5153548;27;20023;-76
2022/05/23 01:05:55;;;;;;;15.02;8.20;;;;;;;;;;5157784;27;20023;-76
2022/05/23 01:08:22;;;;;;;12.60;8.77;;;;;;;;;;5157622;27;20080;-76
2022/05/23 01:10:49;;;;;;;12.95;9.15;;;;;;;;;;5157784;27;20023;-77
2022/05/23 01:13:16;;;;;;;16.42;10.68;;;;;;;;;;5153394;27;20042;-76
2022/05/23 01:15:47;;;;;;;16.43;9.43;;;;;;;;;;5132673;27;20039;-76
2022/05/23 01:18:14;;;;;;;16.00;10.70;;;;;;;;;;5132214;27;20076;-76
2022/05/23 01:20:41;;;;;;;14.47;9.60;;;;;;;;;;5130928;27;20065;-76
2022/05/23 01:23:25;;;;;;;14.63;10.90;;;;;;;;;;5131077;27;20505;-76
2022/05/23 01:25:52;;;;;;;17.08;13.30;;;;;;;;;;5134792;27;20054;-77
2022/05/23 01:28:19;;;;;;;15.83;12.93;;;;;;;;;;5136646;27;20409;-76
2022/05/23 01:30:47;;;;;;;18.93;13.60;;;;;;;;;;5136458;27;20020;-77
2022/05/23 01:33:14;;;;;;;20.30;14.50;;;;;;;;;;5136521;27;20421;-77
2022/05/23 01:35:41;;;;;;;23.40;16.07;;;;;;;;;;5155119;27;20412;-76
2022/05/23 01:38:09;;;;;;;23.90;14.20;;;;;;;;;;5153430;27;20037;-77
2022/05/23 01:40:35;;;;;;;21.43;14.80;;;;;;;;;;5151575;27;20102;-77
2022/05/23 01:43:03;;;;;;;23.50;15.17;;;;;;;;;;5149448;27;20031;-77
2022/05/23 01:45:32;;;;;;;26.10;15.40;;;;;;;;;;5151453;27;20030;-77
2022/05/23 01:48:00;;;;;;;18.73;14.10;;;;;;;;;;5154381;27;20544;-77
2022/05/23 01:50:27;;;;;;;22.63;13.47;;;;;;;;;;5156968;27;20428;-76
2022/05/23 01:52:54;;;;;;;18.37;13.87;;;;;;;;;;5156985;27;20054;-77
2022/05/23 01:55:21;;;;;;;26.00;15.30;;;;;;;;;;5156861;27;20027;-76
2022/05/23 01:57:48;;;;;;;24.23;16.33;;;;;;;;;;5152305;27;20152;-76
2022/05/23 02:03:00;;;;;;;24.07;14.33;;;;;;;;;;5130530;27;20084;-76
2022/05/23 02:05:28;;;;;;;24.77;15.23;;;;;;;;;;5130177;27;20011;-76
2022/05/23 02:07:56;;;;;;;21.77;15.03;;;;;;;;;;5130345;27;20106;-76
2022/05/23 02:10:23;;;;;;;21.43;14.40;;;;;;;;;;5133056;27;20023;-76
2022/05/23 02:12:50;;;;;;;20.93;13.47;;;;;;;;;;5135710;27;20027;-76
2022/05/23 02:15:17;;;;;;;20.00;13.27;;;;;;;;;;5139892;27;20035;-76
2022/05/23 02:17:44;;;;;;;16.77;12.10;;;;;;;;;;5155952;27;20046;-76
2022/05/23 02:20:12;;;;;;;23.23;15.10;;;;;;;;;;5156561;27;20030;-76
2022/05/23 02:22:39;;;;;;;21.13;15.67;;;;;;;;;;5153406;27;20019;-76
2022/05/23 02:25:06;;;;;;;24.20;17.03;;;;;;;;;;5150913;27;20427;-76
2022/05/23 02:27:34;;;;;;;26.07;17.60;;;;;;;;;;5150276;27;20113;-76
2022/05/23 02:30:01;;;;;;;25.43;17.17;;;;;;;;;;5150511;27;20083;-76
2022/05/23 02:32:28;;;;;;;27.27;17.93;;;;;;;;;;5149884;27;20450;-76
2022/05/23 02:34:55;;;;;;;23.50;16.27;;;;;;;;;;5154473;27;20034;-77
2022/05/23 02:37:21;;;;;;;28.83;16.43;;;;;;;;;;5156135;27;20046;-76
2022/05/23 02:39:48;;;;;;;24.57;17.60;;;;;;;;;;5156009;27;20045;-76
2022/05/23 02:42:15;;;;;;;29.50;18.50;;;;;;;;;;5155938;27;20019;-76
2022/05/23 02:44:42;;;;;;;26.63;18.03;;;;;;;;;;5153821;27;20107;-76
2022/05/23 02:47:09;;;;;;;28.47;17.13;;;;;;;;;;5150225;27;20050;-76
2022/05/23 02:49:36;;;;;;;21.90;16.57;;;;;;;;;;5150084;27;20448;-76
2022/05/23 02:52:03;;;;;;;22.13;16.40;;;;;;;;;;5130953;27;20023;-76
2022/05/23 02:54:29;;;;;;;27.50;16.90;;;;;;;;;;5130144;27;20144;-76
2022/05/23 02:56:56;;;;;;;26.10;16.57;;;;;;;;;;5134980;27;20047;-75
2022/05/23 02:59:23;;;;;;;26.07;18.33;;;;;;;;;;5134936;27;20071;-76
2022/05/23 03:04:35;;;;;;;26.35;19.15;;;;;;;;;;5134833;27;20437;-76
2022/05/23 03:07:02;;;;;;;20.67;15.67;;;;;;;;;;5132446;27;20030;-76
2022/05/23 03:09:30;;;;;;;25.60;16.90;;;;;;;;;;5147267;27;20018;-75
2022/05/23 03:11:56;;;;;;;24.23;18.57;;;;;;;;;;5149695;27;20423;-76
2022/05/23 03:14:23;;;;;;;29.93;17.83;;;;;;;;;;5149725;27;20027;-76
2022/05/23 03:16:50;;;;;;;23.47;17.47;;;;;;;;;;5139410;27;20015;-76
2022/05/23 03:19:16;;;;;;;20.77;16.73;;;;;;;;;;5134551;27;20055;-76
2022/05/23 03:27:13;;;;;;;23.67;16.07;;;;;;;;;;5136074;27;20041;-75
2022/05/23 03:29:40;;;;;;;20.23;14.10;;;;;;;;;;5150877;27;20046;-75
2022/05/23 03:32:07;;;;;;;24.13;14.43;;;;;;;;;;5149265;27;20408;-76
2022/05/23 03:34:34;;;;;;;23.90;14.17;;;;;;;;;;5148993;27;20034;-76
2022/05/23 03:37:00;;;;;;;23.53;14.77;;;;;;;;;;5149340;27;20460;-76
2022/05/23 03:39:28;;;;;;;24.90;14.60;;;;;;;;;;5150065;27;20418;-76
2022/05/23 03:41:55;;;;;;;23.10;16.50;;;;;;;;;;5154828;27;20141;-76
2022/05/23 03:44:21;;;;;;;22.63;15.17;;;;;;;;;;5154742;27;20022;-75
2022/05/23 03:46:48;;;;;;;20.13;14.83;;;;;;;;;;5134728;27;20083;-76
2022/05/23 03:49:15;;;;;;;20.67;14.43;;;;;;;;;;5134019;27;20031;-76
2022/05/23 03:51:41;;;;;;;26.60;17.00;;;;;;;;;;5132678;27;20546;-76
2022/05/23 03:54:08;;;;;;;25.53;16.90;;;;;;;;;;5128066;27;20031;-76
2022/05/23 03:56:35;;;;;;;28.53;19.20;;;;;;;;;;5128038;27;20357;-76
2022/05/23 03:59:01;;;;;;;32.43;22.97;;;;;;;;;;5127995;27;20027;-76
2022/05/23 04:01:30;;;;;;;31.07;19.53;;;;;;;;;;5139726;27;20083;-75
2022/05/23 04:03:57;;;;;;;23.97;18.10;;;;;;;;;;5154338;27;20034;-76
2022/05/23 04:06:24;;;;;;;29.97;18.83;;;;;;;;;;5154384;27;20136;-76
2022/05/23 04:08:51;;;;;;;32.80;20.37;;;;;;;;;;5135036;27;20049;-76
2022/05/23 04:11:18;;;;;;;27.30;18.87;;;;;;;;;;5133741;27;20023;-76
2022/05/23 04:13:44;;;;;;;31.83;20.57;;;;;;;;;;5133636;27;20026;-75
2022/05/23 04:16:11;;;;;;;28.10;19.97;;;;;;;;;;5127804;27;20046;-76
2022/05/23 04:18:38;;;;;;;27.10;20.03;;;;;;;;;;5127788;27;20088;-76
2022/05/23 04:21:05;;;;;;;33.57;21.60;;;;;;;;;;5127700;27;20047;-75
2022/05/23 04:23:32;;;;;;;31.30;18.90;;;;;;;;;;5142967;27;20026;-76
2022/05/23 04:26:04;;;;;;;24.47;18.50;;;;;;;;;;5153285;27;20098;-76
2022/05/23 04:28:31;;;;;;;29.67;21.90;;;;;;;;;;5153901;27;20022;-76
2022/05/23 04:30:58;;;;;;;32.13;22.97;;;;;;;;;;5154003;27;20484;-76
2022/05/23 04:36:10;;;;;;;35.13;26.70;;;;;;;;;;5153944;27;20053;-75
2022/05/23 04:38:37;;;;;;;34.43;26.93;;;;;;;;;;5145528;27;20014;-76
2022/05/23 04:41:06;;;;;;;34.50;26.90;;;;;;;;;;5148415;27;20052;-76
2022/05/23 04:43:33;;;;;;;35.47;26.77;;;;;;;;;;5148504;27;20026;-76
2022/05/23 04:46:00;;;;;;;33.97;27.47;;;;;;;;;;5148376;27;20015;-76
2022/05/23 04:51:11;;;;;;;37.83;27.63;;;;;;;;;;5153651;27;20037;-76
2022/05/23 04:53:38;;;;;;;37.17;27.23;;;;;;;;;;5150511;27;20027;-76
2022/05/23 04:56:05;;;;;;;36.77;27.90;;;;;;;;;;5132943;28;20039;-76
2022/05/23 04:58:31;;;;;;;32.00;24.63;;;;;;;;;;5133174;28;20497;-76
2022/05/23 05:01:01;;;;;;;32.83;26.40;;;;;;;;;;5127759;28;20019;-75
2022/05/23 05:03:27;;;;;;;39.50;26.90;;;;;;;;;;5127628;28;20023;-76
2022/05/23 05:05:54;;;;;;;31.50;24.83;;;;;;;;;;5127475;28;20047;-76
2022/05/23 05:08:21;;;;;;;41.33;26.83;;;;;;;;;;5137436;27;20469;-76
2022/05/23 05:10:48;;;;;;;32.40;26.33;;;;;;;;;;5135270;27;20027;-75
2022/05/23 05:13:15;;;;;;;32.47;25.53;;;;;;;;;;5137298;27;20035;-75
2022/05/23 05:15:41;;;;;;;36.37;25.47;;;;;;;;;;5150672;27;20041;-75
2022/05/23 05:18:08;;;;;;;31.70;26.67;;;;;;;;;;5135089;27;20094;-74
2022/05/23 05:20:35;;;;;;;33.20;26.10;;;;;;;;;;5132510;28;20106;-75
2022/05/23 05:23:01;;;;;;;35.40;24.23;;;;;;;;;;5128354;28;20038;-75
2022/05/23 05:25:28;;;;;;;36.20;23.90;;;;;;;;;;5127396;28;20023;-75
2022/05/23 05:27:55;;;;;;;28.23;19.47;;;;;;;;;;5126916;28;20381;-75
2022/05/23 05:30:22;;;;;;;28.87;19.20;;;;;;;;;;5127214;28;20023;-75
2022/05/23 05:33:10;;;;;;;23.17;17.63;;;;;;;;;;5130594;27;20389;-75
2022/05/23 05:35:43;;;;;;;27.67;19.67;;;;;;;;;;5132699;27;20066;-74
2022/05/23 05:38:13;;;;;;;25.67;18.87;;;;;;;;;;5135754;27;20058;-75
2022/05/23 05:40:40;;;;;;;24.97;17.03;;;;;;;;;;5153263;27;20015;-75
2022/05/23 05:43:14;;;;;;;29.73;21.83;;;;;;;;;;5136860;27;20031;-76
2022/05/23 05:45:43;;;;;;;33.83;20.42;;;;;;;;;;5131053;27;20083;-75
2022/05/23 05:48:09;;;;;;;28.43;20.10;;;;;;;;;;5147516;27;20023;-75
2022/05/23 05:50:38;;;;;;;23.07;17.37;;;;;;;;;;5149128;27;20037;-75
2022/05/23 05:53:08;;;;;;;25.67;19.03;;;;;;;;;;5150636;27;20078;-77
2022/05/23 05:55:35;;;;;;;27.27;21.07;;;;;;;;;;5134639;27;20035;-77
2022/05/23 05:58:02;;;;;;;23.30;18.37;;;;;;;;;;5135883;27;20477;-77
2022/05/23 06:00:29;;;;;;;27.57;19.47;;;;;;;;;;5135730;27;20133;-76
2022/05/23 06:02:56;;;;;;;23.37;18.33;;;;;;;;;;5141351;27;20111;-77
2022/05/23 06:05:22;;;;;;;32.20;18.90;;;;;;;;;;5147245;27;20030;-77
2022/05/23 06:13:19;;;;;;;25.47;18.73;;;;;;;;;;5130972;27;20429;-77
2022/05/23 06:15:46;;;;;;;24.83;18.40;;;;;;;;;;5130402;27;20039;-77
2022/05/23 06:18:13;;;;;;;28.17;19.23;;;;;;;;;;5149252;27;20445;-78
2022/05/23 06:20:39;;;;;;;27.43;22.40;;;;;;;;;;5156158;27;20030;-78
2022/05/23 06:23:06;;;;;;;33.60;20.57;;;;;;;;;;5141966;27;20034;-77
2022/05/23 06:25:33;;;;;;;27.03;18.83;;;;;;;;;;5146976;27;20029;-76
2022/05/23 06:28:00;;;;;;;23.53;16.67;;;;;;;;;;5152211;27;20023;-77
2022/05/23 06:30:27;;;;;;;28.33;19.57;;;;;;;;;;5131120;27;20015;-77
2022/05/23 06:32:53;;;;;;;28.87;22.40;;;;;;;;;;5143175;27;20030;-78
2022/05/23 06:35:21;;;;;;;31.23;23.53;;;;;;;;;;5150436;27;20042;-77
2022/05/23 06:37:48;;;;;;;34.03;22.80;;;;;;;;;;5150148;27;20023;-79
2022/05/23 06:40:15;;;;;;;35.33;24.07;;;;;;;;;;5148493;27;20027;-77
2022/05/23 06:42:42;;;;;;;44.77;23.23;;;;;;;;;;5155949;27;20022;-78
2022/05/23 06:45:10;;;;;;;30.03;22.07;;;;;;;;;;5156088;27;20423;-77
2022/05/23 06:47:37;;;;;;;26.97;21.90;;;;;;;;;;5139999;27;20125;-78
2022/05/23 06:50:03;;;;;;;29.50;22.53;;;;;;;;;;5154123;27;20088;-78
2022/05/23 06:52:30;;;;;;;28.13;22.60;;;;;;;;;;5151587;27;20018;-78
2022/05/23 06:54:57;;;;;;;34.27;22.70;;;;;;;;;;5149759;27;20035;-77
2022/05/23 06:57:24;;;;;;;37.03;24.73;;;;;;;;;;5130495;27;20117;-77
2022/05/23 06:59:50;;;;;;;29.57;23.50;;;;;;;;;;5129888;27;20029;-78
2022/05/23 07:02:17;;;;;;;31.17;24.00;;;;;;;;;;5131877;27;20362;-78
2022/05/23 07:12:58;;;;;;;33.42;24.75;;;;;;;;;;5154286;27;20087;-78
2022/05/23 07:15:27;;;;;;;31.07;23.30;;;;;;;;;;5150206;27;20035;-79
2022/05/23 07:17:54;;;;;;;35.47;22.40;;;;;;;;;;5138581;27;20023;-77
2022/05/23 07:20:21;;;;;;;31.50;23.00;;;;;;;;;;5144120;27;20575;-78
2022/05/23 07:22:47;;;;;;;28.43;24.37;;;;;;;;;;5149631;27;20064;-77
2022/05/23 07:25:14;;;;;;;31.27;24.60;;;;;;;;;;5152643;27;20361;-77
2022/05/23 07:27:41;;;;;;;36.03;23.63;;;;;;;;;;5147318;27;20041;-78
2022/05/23 07:30:09;;;;;;;29.90;23.93;;;;;;;;;;5138298;27;20035;-78
2022/05/23 07:32:35;;;;;;;32.47;23.57;;;;;;;;;;5113891;28;20110;-78
2022/05/23 07:35:02;;;;;;;31.87;22.63;;;;;;;;;;5135600;27;20034;-77
2022/05/23 07:37:29;;;;;;;30.93;22.13;;;;;;;;;;5150971;27;20473;-78
2022/05/23 07:39:58;;;;;;;30.70;23.10;;;;;;;;;;5148993;27;20026;-77
2022/05/23 07:42:25;;;;;;;28.70;22.97;;;;;;;;;;5121698;27;20377;-78
2022/05/23 07:44:52;;;;;;;31.50;22.20;;;;;;;;;;5149362;27;20061;-77
2022/05/23 07:47:18;;;;;;;29.33;22.77;;;;;;;;;;5152900;27;20019;-77
2022/05/23 07:49:47;;;;;;;27.90;21.53;;;;;;;;;;5154442;27;20093;-77
2022/05/23 07:52:14;;;;;;;30.90;22.43;;;;;;;;;;5141562;27;20084;-77
2022/05/23 08:02:56;;;;;;;29.63;20.83;;;;;;;;;;5148838;27;20160;-77
2022/05/23 08:05:23;;;;;;;32.43;21.53;;;;;;;;;;5148784;27;20477;-78
2022/05/23 08:07:50;;;;;;;26.40;20.53;;;;;;;;;;5148918;27;20031;-77
2022/05/23 08:10:17;;;;;;;31.97;20.57;;;;;;;;;;5143869;27;20101;-77
2022/05/23 08:12:49;;;;;;;27.03;22.00;;;;;;;;;;5139461;27;20095;-78
2022/05/23 08:15:16;;;;;;;27.80;22.00;;;;;;;;;;5154003;27;20027;-77
2022/05/23 08:17:43;;;;;;;28.67;20.73;;;;;;;;;;5146138;27;20042;-77
2022/05/23 08:20:10;;;;;;;23.77;17.83;;;;;;;;;;5133549;27;20030;-77
2022/05/23 08:22:37;;;;;;;22.80;17.37;;;;;;;;;;5139337;27;20011;-77
2022/05/23 08:25:04;;;;;;;22.30;18.27;;;;;;;;;;5142183;27;20056;-77
2022/05/23 08:27:31;;;;;;;31.87;19.57;;;;;;;;;;5129331;27;20035;-77
2022/05/23 08:29:57;;;;;;;25.40;18.07;;;;;;;;;;5143332;27;20113;-77
2022/05/23 08:32:24;;;;;;;27.23;19.07;;;;;;;;;;5132776;27;20087;-77
2022/05/23 08:34:52;;;;;;;27.63;22.00;;;;;;;;;;5138448;27;20035;-78
2022/05/23 08:37:18;;;;;;;26.27;20.47;;;;;;;;;;5154084;27;20079;-77
2022/05/23 08:39:47;;;;;;;28.73;22.03;;;;;;;;;;5153554;27;20071;-77
2022/05/23 08:42:13;;;;;;;23.90;18.33;;;;;;;;;;5153624;27;20380;-77
2022/05/23 08:44:40;;;;;;;23.30;18.30;;;;;;;;;;5140694;27;20457;-77
2022/05/23 08:47:09;;;;;;;28.70;19.97;;;;;;;;;;5127582;28;20497;-78
2022/05/23 08:49:42;;;;;;;24.13;18.57;;;;;;;;;;5146285;27;20026;-77
2022/05/23 08:52:09;;;;;;;20.53;15.60;;;;;;;;;;5148022;27;20374;-77
2022/05/23 08:54:41;;;;;;;20.10;16.73;;;;;;;;;;5136101;27;20415;-77
2022/05/23 08:57:10;;;;;;;24.03;15.83;;;;;;;;;;5133177;27;20106;-77
2022/05/23 08:59:44;;;;;;;23.17;17.77;;;;;;;;;;5132660;27;20050;-78
2022/05/23 09:02:33;;;;;;;28.10;19.80;;;;;;;;;;5133199;27;20063;-77
2022/05/23 09:05:05;;;;;;;24.20;18.87;;;;;;;;;;5134912;27;20527;-77
2022/05/23 09:07:39;;;;;;;24.87;19.93;;;;;;;;;;5128084;27;20085;-78
2022/05/23 09:10:26;;;;;;;25.88;19.52;;;;;;;;;;5133026;27;20088;-77
2022/05/23 09:12:53;;;;;;;22.90;18.47;;;;;;;;;;5137890;27;20524;-77
2022/05/23 09:15:21;;;;;;;28.33;21.47;;;;;;;;;;5127601;27;20035;-77
2022/05/23 09:17:50;;;;;;;23.13;18.07;;;;;;;;;;5133137;27;20023;-77
2022/05/23 09:20:20;;;;;;;28.50;20.70;;;;;;;;;;5137466;27;20362;-78
2022/05/23 09:22:50;;;;;;;25.50;20.33;;;;;;;;;;5132852;27;20019;-77
2022/05/23 09:25:21;;;;;;;24.23;19.40;;;;;;;;;;5147647;27;20464;-77
2022/05/23 09:27:48;;;;;;;31.33;22.57;;;;;;;;;;5156901;27;20052;-77
2022/05/23 09:30:16;;;;;;;24.27;19.73;;;;;;;;;;5134366;27;20046;-77
2022/05/23 09:32:55;;;;;;;26.87;17.53;;;;;;;;;;5134397;27;20030;-77
2022/05/23 09:35:27;;;;;;;28.17;19.43;;;;;;;;;;5138023;27;20393;-78
2022/05/23 09:38:08;;;;;;;26.13;19.13;;;;;;;;;;5131552;27;20030;-77
2022/05/23 09:40:38;;;;;;;22.97;16.97;;;;;;;;;;5136576;27;20116;-78
2022/05/23 09:49:11;;;;;;;20.30;16.40;;;;;;;;;;5143997;27;20107;-77
2022/05/23 09:51:58;;;;;;;24.05;17.33;;;;;;;;;;5153171;27;20489;-77
2022/05/23 09:54:28;;;;;;;25.30;17.93;;;;;;;;;;5151501;27;20060;-77
2022/05/23 09:56:56;;;;;;;26.03;18.97;;;;;;;;;;5141532;27;20474;-77
2022/05/23 09:59:25;;;;;;;25.73;17.77;;;;;;;;;;5130698;27;20448;-77
2022/05/23 10:01:53;;;;;;;26.67;17.70;;;;;;;;;;5134445;27;20063;-77
2022/05/23 10:04:25;;;;;;;19.57;16.70;;;;;;;;;;5143671;27;20050;-77
2022/05/23 10:06:52;;;;;;;24.30;18.07;;;;;;;;;;5156588;27;20073;-77
2022/05/23 10:09:33;;;;;;;25.80;19.17;;;;;;;;;;5153739;27;20019;-77
2022/05/23 10:12:04;;;;;;;30.57;20.13;;;;;;;;;;5137488;27;20152;-78
2022/05/23 10:14:51;;;;;;;28.27;20.30;;;;;;;;;;5151296;27;20014;-77
2022/05/23 10:17:28;;;;;;;23.33;18.27;;;;;;;;;;5151115;27;20015;-78
2022/05/23 10:20:14;;;;;;;30.47;21.03;;;;;;;;;;5141901;27;20019;-77
2022/05/23 10:22:54;;;;;;;26.97;20.50;;;;;;;;;;5130529;27;20079;-77
2022/05/23 10:25:21;;;;;;;30.40;22.73;;;;;;;;;;5135211;27;20070;-79
2022/05/23 10:27:51;;;;;;;38.57;27.17;;;;;;;;;;5135793;27;20132;-78
2022/05/23 10:30:22;;;;;;;31.10;22.43;;;;;;;;;;5144252;27;20035;-78
2022/05/23 10:32:51;;;;;;;32.10;22.53;;;;;;;;;;5135413;27;20067;-78
2022/05/23 10:35:18;;;;;;;31.00;24.00;;;;;;;;;;5141157;27;20041;-77
2022/05/23 10:37:46;;;;;;;34.73;25.07;;;;;;;;;;5150690;27;20608;-78
2022/05/23 10:43:01;;;;;;;24.63;19.10;;;;;;;;;;5130409;27;20038;-77
2022/05/23 10:45:41;;;;;;;30.50;21.30;;;;;;;;;;5131334;27;20101;-77
2022/05/23 10:48:10;;;;;;;24.80;18.27;;;;;;;;;;5135351;27;20023;-77
2022/05/23 10:51:00;;;;;;;26.97;18.37;;;;;;;;;;5135099;27;20023;-78
2022/05/23 10:53:29;;;;;;;29.17;17.87;;;;;;;;;;5141707;27;20022;-77
2022/05/23 10:56:08;;;;;;;28.93;19.53;;;;;;;;;;5155306;27;20027;-77
2022/05/23 10:58:40;;;;;;;28.37;19.47;;;;;;;;;;5152231;27;20027;-77
2022/05/23 11:01:07;;;;;;;30.30;21.13;;;;;;;;;;5145213;27;20114;-77
2022/05/23 11:03:39;;;;;;;27.93;21.97;;;;;;;;;;5129546;27;20027;-76
2022/05/23 11:06:09;;;;;;;27.77;20.73;;;;;;;;;;5129650;27;20358;-77
2022/05/23 11:08:51;;;;;;;25.37;18.83;;;;;;;;;;5133451;27;20037;-77
2022/05/23 11:11:45;;;;;;;24.67;17.67;;;;;;;;;;5115198;27;20050;-77
2022/05/23 11:14:37;;;;;;;32.30;19.47;;;;;;;;;;5142197;27;20039;-77
2022/05/23 11:17:16;;;;;;;27.63;20.00;;;;;;;;;;5151667;27;20060;-77
2022/05/23 11:19:51;;;;;;;28.47;19.23;;;;;;;;;;5122005;27;20010;-77
2022/05/23 11:22:29;;;;;;;29.33;18.13;;;;;;;;;;5149601;27;20030;-77
2022/05/23 11:25:04;;;;;;;24.37;17.70;;;;;;;;;;5136890;27;20470;-78
2022/05/23 11:35:55;;;;;;;26.33;19.60;;;;;;;;;;5154584;27;20091;-77
2022/05/23 11:38:22;;;;;;;48.83;20.53;;;;;;;;;;5154872;27;20101;-77
2022/05/23 11:41:07;;;;;;;24.87;17.80;;;;;;;;;;5113334;28;20019;-78
2022/05/23 11:43:34;;;;;;;24.20;16.93;;;;;;;;;;5111295;27;20027;-78
2022/05/23 11:46:02;;;;;;;24.67;18.07;;;;;;;;;;5140133;27;20537;-78
2022/05/23 11:48:29;;;;;;;28.03;19.23;;;;;;;;;;5149281;27;20114;-77
2022/05/23 11:50:57;;;;;;;31.67;18.67;;;;;;;;;;5149115;27;20030;-78
2022/05/23 11:53:34;;;;;;;27.17;18.63;;;;;;;;;;5152096;27;20015;-78
2022/05/23 11:56:03;;;;;;;32.23;21.73;;;;;;;;;;5154222;27;20035;-78
2022/05/23 11:58:33;;;;;;;26.13;19.73;;;;;;;;;;5154037;27;20023;-78
2022/05/23 12:01:17;;;;;;;27.13;18.93;;;;;;;;;;5153964;27;20018;-76
2022/05/23 12:03:54;;;;;;;26.90;18.47;;;;;;;;;;5145653;27;20018;-76
2022/05/23 12:06:35;;;;;;;29.43;20.03;;;;;;;;;;5114681;27;20472;-77
2022/05/23 12:09:05;;;;;;;33.23;22.03;;;;;;;;;;5147434;27;20027;-77
2022/05/23 12:11:33;;;;;;;33.97;21.90;;;;;;;;;;5128659;27;20027;-78
2022/05/23 12:14:19;;;;;;;31.37;22.03;;;;;;;;;;5131529;27;20080;-77
2022/05/23 12:16:51;;;;;;;29.27;20.50;;;;;;;;;;5153640;27;20023;-77
2022/05/23 12:19:21;;;;;;;32.03;21.17;;;;;;;;;;5153850;27;20015;-77
2022/05/23 12:21:49;;;;;;;34.00;21.07;;;;;;;;;;5153504;27;20067;-78
2022/05/23 12:24:24;;;;;;;35.17;21.63;;;;;;;;;;5154055;27;20026;-77
2022/05/23 12:26:55;;;;;;;34.70;23.40;;;;;;;;;;5153359;27;20019;-78
2022/05/23 12:29:29;;;;;;;32.90;21.63;;;;;;;;;;5148314;27;20043;-78
2022/05/23 12:32:19;;;;;;;35.17;23.70;;;;;;;;;;5128128;27;20045;-77
2022/05/23 12:34:48;;;;;;;29.80;22.40;;;;;;;;;;5132972;27;20465;-77
2022/05/23 12:37:16;;;;;;;29.90;22.80;;;;;;;;;;5149542;27;20023;-77
2022/05/23 12:39:53;;;;;;;33.00;23.60;;;;;;;;;;5149162;27;20030;-77
2022/05/23 12:42:31;;;;;;;30.67;20.73;;;;;;;;;;5132662;28;20027;-78
2022/05/23 12:45:08;;;;;;;34.37;22.80;;;;;;;;;;5133073;27;20478;-77
2022/05/23 12:47:47;;;;;;;28.70;20.17;;;;;;;;;;5133211;28;20053;-77
2022/05/23 12:50:32;;;;;;;30.07;21.20;;;;;;;;;;5129953;27;20072;-77
2022/05/23 12:53:02;;;;;;;33.35;23.02;;;;;;;;;;5127892;27;20031;-77
2022/05/23 12:55:40;;;;;;;31.33;21.77;;;;;;;;;;5129532;27;20039;-77
2022/05/23 12:58:13;;;;;;;39.10;22.83;;;;;;;;;;5148495;27;20030;-78
2022/05/23 13:00:46;;;;;;;43.43;24.70;;;;;;;;;;5155536;27;20026;-78
2022/05/23 13:03:19;;;;;;;46.87;29.10;;;;;;;;;;5157591;27;20022;-77
2022/05/23 13:05:55;;;;;;;40.37;25.47;;;;;;;;;;5152738;27;20466;-77
2022/05/23 13:08:28;;;;;;;37.30;24.67;;;;;;;;;;5138191;27;20031;-77
2022/05/23 13:11:03;;;;;;;44.40;24.40;;;;;;;;;;5137788;27;20465;-79
2022/05/23 13:13:32;;;;;;;34.15;24.40;;;;;;;;;;5131905;27;20496;-78
2022/05/23 13:16:14;;;;;;;45.67;27.57;;;;;;;;;;5150343;27;20035;-78
2022/05/23 13:24:48;;;;;;;32.90;26.10;;;;;;;;;;5146009;27;20050;-78
2022/05/23 13:27:03;;;;;;;42.73;27.90;;;;;;;;;;5136424;27;20084;-78
2022/05/23 13:29:31;;;;;;;43.03;27.57;;;;;;;;;;5142614;27;20033;-78
2022/05/23 13:32:07;;;;;;;47.63;33.33;;;;;;;;;;5155790;27;20026;-78
2022/05/23 13:34:35;;;;;;;55.80;37.23;;;;;;;;;;5154506;27;20362;-77
2022/05/23 13:37:03;;;;;;;57.17;38.83;;;;;;;;;;5142333;27;20362;-78
2022/05/23 13:39:29;;;;;;;59.17;37.33;;;;;;;;;;5136971;27;20035;-77
2022/05/23 13:41:56;;;;;;;59.33;38.10;;;;;;;;;;5151555;27;20118;-78
2022/05/23 13:44:25;;;;;;;58.83;37.67;;;;;;;;;;5152900;27;20023;-78
2022/05/23 13:46:54;;;;;;;58.33;37.87;;;;;;;;;;5157225;27;20026;-77
2022/05/23 13:49:27;;;;;;;56.43;36.57;;;;;;;;;;5151889;27;20034;-77
2022/05/23 13:51:57;;;;;;;48.10;33.03;;;;;;;;;;5136117;27;20046;-77
2022/05/23 13:54:32;;;;;;;49.13;35.07;;;;;;;;;;5136172;27;20019;-77
2022/05/23 13:57:09;;;;;;;42.40;31.60;;;;;;;;;;5132657;27;20504;-78
2022/05/23 13:59:43;;;;;;;44.13;33.03;;;;;;;;;;5130370;27;20464;-78
2022/05/23 14:02:13;;;;;;;50.40;33.15;;;;;;;;;;5134460;27;20057;-77
2022/05/23 14:04:41;;;;;;;43.03;31.03;;;;;;;;;;5150740;27;20106;-78
2022/05/23 14:07:15;;;;;;;42.67;31.10;;;;;;;;;;5145487;27;20038;-77
2022/05/23 14:09:46;;;;;;;48.03;30.40;;;;;;;;;;5127424;27;20065;-77
2022/05/23 14:12:14;;;;;;;37.93;28.37;;;;;;;;;;5153259;27;20500;-77
2022/05/23 14:14:43;;;;;;;36.17;26.73;;;;;;;;;;5135859;27;20029;-77
2022/05/23 14:17:10;;;;;;;36.20;27.53;;;;;;;;;;5138769;27;20477;-78
2022/05/23 14:19:48;;;;;;;32.23;24.67;;;;;;;;;;5141542;27;20347;-77
2022/05/23 14:22:35;;;;;;;34.87;26.70;;;;;;;;;;5130346;27;20120;-77
2022/05/23 14:25:14;;;;;;;36.37;25.73;;;;;;;;;;5109603;28;20031;-78
2022/05/23 14:27:49;;;;;;;31.33;23.87;;;;;;;;;;5109668;28;20032;-78
2022/05/23 14:30:24;;;;;;;29.75;21.17;;;;;;;;;;5114048;28;20036;-77
2022/05/23 14:32:55;;;;;;;30.30;21.73;;;;;;;;;;5115092;28;20047;-77
2022/05/23 14:35:27;;;;;;;37.13;27.53;;;;;;;;;;5128519;27;20035;-77
2022/05/23 14:37:55;;;;;;;34.73;27.07;;;;;;;;;;5148876;27;20034;-78
2022/05/23 14:40:41;;;;;;;43.83;27.87;;;;;;;;;;5138141;27;20027;-78
2022/05/23 14:43:10;;;;;;;36.70;25.80;;;;;;;;;;5116888;27;20370;-77
2022/05/23 14:45:57;;;;;;;38.97;28.80;;;;;;;;;;5143148;27;20407;-78
2022/05/23 14:48:26;;;;;;;39.97;26.80;;;;;;;;;;5150311;27;20015;-78
2022/05/23 14:50:54;;;;;;;33.77;25.23;;;;;;;;;;5148528;27;20357;-77
2022/05/23 14:56:23;;;;;;;35.73;22.27;;;;;;;;;;5155763;27;20542;-78
2022/05/23 15:01:41;;;;;;;24.83;19.10;;;;;;;;;;5155720;27;20122;-77
2022/05/23 15:04:09;;;;;;;28.33;18.67;;;;;;;;;;5152617;27;20435;-78
2022/05/23 15:06:36;;;;;;;31.60;21.23;;;;;;;;;;5131989;27;20100;-77
2022/05/23 15:09:02;;;;;;;28.40;19.47;;;;;;;;;;5130191;27;20015;-78
2022/05/23 15:11:32;;;;;;;21.50;16.17;;;;;;;;;;5148160;27;20026;-78
2022/05/23 15:14:00;;;;;;;21.80;16.47;;;;;;;;;;5132058;27;20035;-78
2022/05/23 15:16:27;;;;;;;20.60;15.17;;;;;;;;;;5134153;27;20113;-78
2022/05/23 15:18:54;;;;;;;20.20;14.27;;;;;;;;;;5134556;27;20035;-77
2022/05/23 15:21:21;;;;;;;15.03;12.07;;;;;;;;;;5146025;27;20023;-78
2022/05/23 15:23:47;;;;;;;17.00;12.10;;;;;;;;;;5135533;27;20023;-77
2022/05/23 15:26:18;;;;;;;13.70;11.50;;;;;;;;;;5131829;27;20019;-77
2022/05/23 15:28:45;;;;;;;17.37;10.47;;;;;;;;;;5129348;27;20034;-78
2022/05/23 15:31:12;;;;;;;16.40;11.03;;;;;;;;;;5145340;27;20374;-77
2022/05/23 15:33:40;;;;;;;16.93;11.63;;;;;;;;;;5128836;27;20030;-77
2022/05/23 15:36:06;;;;;;;16.47;11.40;;;;;;;;;;5140490;27;20031;-78
2022/05/23 15:38:33;;;;;;;16.90;10.98;;;;;;;;;;5134324;27;20026;-78
2022/05/23 15:41:00;;;;;;;14.30;10.38;;;;;;;;;;5142337;27;20026;-77
2022/05/23 15:43:27;;;;;;;14.75;9.98;;;;;;;;;;5154663;27;20439;-77